Time;durP1;ratioP1;P1;durP2;ratioP2;P2;SDS_P1;SDS_P2;PMS_P1;PMS_P2;Temp;Humidity;BMP_temperature;BMP_pressure;BME280_temperature;BME280_humidity;BME280_pressure;Samples;Min_cycle;Max_cycle;Signal;HPM_P1;HPM_P2
2021/03/30 00:01:51;;;;;;;10.73;4.47;;;;;;;8.71;48.68;95885.69;4210832;28;20056;-83
2021/03/30 00:03:52;;;;;;;7.78;4.18;;;;;;;8.79;48.39;95881.53;4228228;28;20067;-71
2021/03/30 00:05:54;;;;;;;12.38;4.65;;;;;;;8.84;47.99;95875.97;4188647;28;20045;-71
2021/03/30 00:07:55;;;;;;;8.85;4.03;;;;;;;8.91;47.55;95876.31;4204836;28;20063;-71
2021/03/30 00:09:56;;;;;;;8.10;4.15;;;;;;;8.95;48.04;95873.34;4223568;28;20055;-72
2021/03/30 00:11:57;;;;;;;6.85;4.45;;;;;;;9.03;47.58;95867.50;4224052;28;20660;-70
2021/03/30 00:13:58;;;;;;;6.85;4.10;;;;;;;9.07;47.34;95865.47;4211766;28;20069;-71
2021/03/30 00:16:00;;;;;;;7.75;3.60;;;;;;;9.10;46.82;95866.09;4211656;28;20063;-71
2021/03/30 00:18:01;;;;;;;9.00;4.47;;;;;;;9.16;47.10;95862.13;4183663;28;20424;-85
2021/03/30 00:20:14;;;;;;;8.18;4.30;;;;;;;9.22;47.05;95854.63;4230857;28;20517;-83
2021/03/30 00:22:15;;;;;;;7.65;4.07;;;;;;;9.28;47.51;95853.31;4213951;28;20056;-84
2021/03/30 00:24:16;;;;;;;9.10;4.13;;;;;;;9.32;46.96;95852.13;4212462;28;20052;-71
2021/03/30 00:26:18;;;;;;;9.88;4.45;;;;;;;9.30;46.70;95854.03;4201438;28;20044;-72
2021/03/30 00:28:19;;;;;;;9.30;4.50;;;;;;;9.36;47.17;95852.72;4226755;28;20044;-71
2021/03/30 00:30:21;;;;;;;10.77;4.65;;;;;;;8.71;48.44;95859.56;4228661;28;20091;-71
2021/03/30 00:32:22;;;;;;;9.50;4.53;;;;;;;8.45;48.87;95853.75;4229978;27;20422;-71
2021/03/30 00:34:23;;;;;;;10.02;4.85;;;;;;;8.52;49.33;95860.19;4208427;28;20490;-70
2021/03/30 00:36:25;;;;;;;9.23;4.60;;;;;;;8.66;48.73;95853.88;4210990;28;20392;-70
2021/03/30 00:38:26;;;;;;;8.85;4.97;;;;;;;8.73;48.62;95855.06;4197188;28;20051;-70
2021/03/30 00:40:28;;;;;;;8.20;5.07;;;;;;;8.80;48.77;95851.03;4200943;28;20688;-71
2021/03/30 00:42:30;;;;;;;9.40;4.68;;;;;;;8.78;48.36;95850.31;4207832;28;20478;-71
2021/03/30 00:44:31;;;;;;;10.90;5.38;;;;;;;8.47;49.36;95855.28;4227499;28;20311;-71
2021/03/30 00:46:35;;;;;;;11.98;5.22;;;;;;;8.46;49.27;95851.03;4227775;28;20082;-71
2021/03/30 00:48:39;;;;;;;8.75;5.03;;;;;;;8.49;49.54;95842.94;4227256;28;20147;-71
2021/03/30 00:50:40;;;;;;;10.75;5.57;;;;;;;8.60;49.64;95847.34;4209173;28;20514;-70
2021/03/30 00:52:43;;;;;;;9.85;5.55;;;;;;;8.68;49.23;95844.13;4226009;28;20065;-71
2021/03/30 00:54:46;;;;;;;9.13;5.47;;;;;;;8.74;48.90;95843.66;4192022;28;20056;-70
2021/03/30 00:56:47;;;;;;;9.75;5.35;;;;;;;8.75;48.75;95843.53;4215603;28;20284;-71
2021/03/30 00:58:49;;;;;;;8.38;4.90;;;;;;;8.75;48.34;95843.53;4227725;28;20047;-71
2021/03/30 01:00:50;;;;;;;10.18;5.55;;;;;;;8.77;48.30;95840.81;4196996;28;20052;-71
2021/03/30 01:02:51;;;;;;;8.13;5.25;;;;;;;8.71;48.69;95836.06;4225190;28;20054;-71
2021/03/30 01:04:52;;;;;;;8.63;4.75;;;;;;;8.69;48.39;95843.19;4226575;28;20051;-70
2021/03/30 01:06:54;;;;;;;10.13;5.30;;;;;;;8.68;48.10;95844.97;4228122;28;20513;-72
2021/03/30 01:09:07;;;;;;;10.80;5.28;;;;;;;8.60;48.30;95844.72;4225670;28;20055;-72
2021/03/30 01:11:25;;;;;;;6.80;4.65;;;;;;;8.57;48.71;95843.19;4226795;28;20055;-82
2021/03/30 01:13:32;;;;;;;15.50;4.88;;;;;;;8.59;48.02;95843.06;4230048;28;20434;-85
2021/03/30 01:15:33;;;;;;;;;;;;;;;8.57;48.38;95843.19;4212885;28;20048;-84
2021/03/30 01:18:02;;;;;;;8.80;4.85;;;;;;;8.55;48.11;95841.66;4243594;28;20553;-85
2021/03/30 01:20:15;;;;;;;8.75;4.32;;;;;;;8.50;48.29;95847.22;4212036;28;20054;-85
2021/03/30 01:22:55;;;;;;;7.97;4.07;;;;;;;8.48;48.29;95846.50;4232489;28;20044;-85
2021/03/30 01:25:01;;;;;;;10.68;4.47;;;;;;;8.44;48.55;95842.47;4239471;28;20350;-85
2021/03/30 01:27:09;;;;;;;7.65;4.10;;;;;;;8.39;47.94;95842.81;4231536;28;20101;-84
2021/03/30 01:29:38;;;;;;;8.73;4.72;;;;;;;8.39;48.75;95855.84;4233165;28;20044;-83
2021/03/30 01:31:50;;;;;;;6.97;4.07;;;;;;;8.35;48.31;95841.38;4218262;28;20058;-85
2021/03/30 01:33:52;;;;;;;11.25;4.78;;;;;;;8.37;48.09;95841.25;4211046;28;20067;-86
2021/03/30 01:35:55;;;;;;;10.10;4.18;;;;;;;8.37;48.21;95847.31;4197226;28;20101;-87
2021/03/30 01:37:56;;;;;;;15.15;4.38;;;;;;;8.37;47.87;95852.53;4212627;28;20052;-85
2021/03/30 01:39:59;;;;;;;7.43;4.10;;;;;;;8.37;48.10;95846.47;4198344;28;20085;-85
2021/03/30 01:42:01;;;;;;;9.45;4.13;;;;;;;8.42;47.76;95846.97;4215743;28;20055;-85
2021/03/30 01:44:03;;;;;;;7.28;4.45;;;;;;;8.43;47.61;95848.63;4225847;28;20047;-71
2021/03/30 01:46:05;;;;;;;8.25;4.45;;;;;;;8.45;47.99;95843.28;4206859;28;20047;-69
2021/03/30 01:48:09;;;;;;;6.40;3.45;;;;;;;8.50;47.72;95841.19;4208261;28;20052;-85
2021/03/30 01:50:11;;;;;;;6.22;4.00;;;;;;;8.52;47.78;95845.34;4212843;28;20111;-84
2021/03/30 01:52:15;;;;;;;8.40;4.00;;;;;;;8.47;48.07;95839.63;4229559;28;20069;-84
2021/03/30 01:54:17;;;;;;;8.73;3.80;;;;;;;8.46;47.73;95845.78;4198259;28;20045;-84
2021/03/30 01:56:19;;;;;;;9.35;4.35;;;;;;;8.43;48.11;95846.00;4222084;28;20112;-84
2021/03/30 01:58:21;;;;;;;10.60;4.55;;;;;;;8.39;47.58;95848.03;4223410;28;20071;-84
2021/03/30 02:00:27;;;;;;;9.05;4.75;;;;;;;8.32;47.90;95838.16;4215908;28;20052;-83
2021/03/30 02:02:28;;;;;;;7.57;3.85;;;;;;;8.31;47.84;95841.72;4217502;28;20050;-88
2021/03/30 02:04:30;;;;;;;10.18;3.97;;;;;;;8.20;48.18;95842.53;4197426;28;20048;-83
2021/03/30 02:06:33;;;;;;;7.88;3.65;;;;;;;8.14;48.46;95833.38;4214173;28;20052;-85
2021/03/30 02:08:35;;;;;;;9.15;4.30;;;;;;;8.03;48.50;95828.16;4234415;27;20039;-83
2021/03/30 02:10:48;;;;;;;8.90;4.28;;;;;;;8.02;48.49;95821.25;4218867;28;20055;-86
2021/03/30 02:12:50;;;;;;;7.28;4.40;;;;;;;8.01;48.84;95822.22;4216890;28;20103;-85
2021/03/30 02:14:51;;;;;;;12.82;4.32;;;;;;;7.92;48.69;95828.13;4215603;28;20055;-84
2021/03/30 02:17:02;;;;;;;9.50;4.50;;;;;;;7.96;49.03;95824.34;4200029;28;20078;-83
2021/03/30 02:19:10;;;;;;;8.57;4.25;;;;;;;7.93;49.03;95817.56;4219306;28;20055;-87
2021/03/30 02:21:17;;;;;;;7.25;4.32;;;;;;;7.89;48.76;95821.34;4219513;27;20499;-84
2021/03/30 02:23:23;;;;;;;7.63;3.42;;;;;;;7.87;49.05;95815.44;4226845;28;20052;-84
2021/03/30 02:25:25;;;;;;;10.13;5.10;;;;;;;7.84;48.53;95818.25;4206352;28;20131;-84
2021/03/30 02:27:27;;;;;;;7.70;3.70;;;;;;;7.75;48.72;95816.34;4218616;28;20442;-84
2021/03/30 02:29:33;;;;;;;8.18;3.88;;;;;;;7.76;49.05;95820.59;4212653;28;20485;-70
2021/03/30 02:31:35;;;;;;;7.60;3.55;;;;;;;7.70;48.91;95819.31;4213633;28;20043;-70
2021/03/30 02:33:38;;;;;;;8.52;4.00;;;;;;;7.71;48.97;95820.13;4210744;28;20044;-71
2021/03/30 02:35:39;;;;;;;7.43;4.30;;;;;;;7.72;48.90;95827.00;4228634;28;20101;-70
2021/03/30 02:37:42;;;;;;;7.97;4.30;;;;;;;7.76;48.85;95820.59;4211197;28;20044;-71
2021/03/30 02:39:43;;;;;;;9.73;4.55;;;;;;;7.72;48.81;95822.63;4211212;28;20052;-72
2021/03/30 02:41:44;;;;;;;8.45;3.85;;;;;;;7.71;48.84;95823.56;4230206;28;20059;-72
2021/03/30 02:43:46;;;;;;;12.80;4.55;;;;;;;7.64;49.03;95826.75;4194392;28;20044;-70
2021/03/30 02:45:50;;;;;;;7.38;4.18;;;;;;;7.67;49.29;95824.72;4217688;28;20530;-72
2021/03/30 02:47:51;;;;;;;9.40;4.03;;;;;;;7.69;48.74;95822.00;4226104;28;20126;-72
2021/03/30 02:49:54;;;;;;;12.10;3.95;;;;;;;7.73;48.85;95828.66;4217886;27;20048;-70
2021/03/30 02:51:57;;;;;;;8.93;4.47;;;;;;;7.70;48.70;95829.72;4231102;27;20052;-86
2021/03/30 02:53:59;;;;;;;7.57;4.43;;;;;;;7.71;49.17;95828.78;4214640;28;20044;-85
2021/03/30 02:56:05;;;;;;;10.02;4.57;;;;;;;7.68;48.86;95829.00;4213704;28;20070;-84
2021/03/30 02:58:06;;;;;;;9.10;4.35;;;;;;;7.65;49.18;95823.19;4220188;28;20056;-85
2021/03/30 03:00:11;;;;;;;8.77;4.45;;;;;;;7.61;48.98;95822.56;4220730;28;20491;-85
2021/03/30 03:02:13;;;;;;;7.78;3.88;;;;;;;7.58;49.05;95818.41;4233875;28;20070;-84
2021/03/30 03:04:14;;;;;;;9.60;4.03;;;;;;;7.45;48.74;95824.66;4235404;28;20055;-84
2021/03/30 03:06:16;;;;;;;9.02;4.35;;;;;;;7.46;49.02;95828.91;4222701;28;20442;-82
2021/03/30 03:08:19;;;;;;;7.25;3.90;;;;;;;7.56;48.67;95833.34;4212843;28;20040;-84
2021/03/30 03:10:21;;;;;;;9.15;4.15;;;;;;;7.54;48.89;95830.00;4212287;28;20052;-83
2021/03/30 03:12:22;;;;;;;7.78;4.03;;;;;;;7.54;49.07;95837.00;4215373;28;20051;-86
2021/03/30 03:14:24;;;;;;;10.00;4.22;;;;;;;7.48;49.01;95827.84;4215456;28;20040;-85
2021/03/30 03:16:26;;;;;;;6.93;4.03;;;;;;;7.49;49.00;95831.31;4219528;28;20055;-84
2021/03/30 03:18:28;;;;;;;7.07;4.68;;;;;;;7.44;49.38;95828.19;4204768;28;20036;-86
2021/03/30 03:20:29;;;;;;;7.72;5.13;;;;;;;7.44;49.25;95831.63;4210721;28;20044;-83
2021/03/30 03:22:30;;;;;;;9.95;4.15;;;;;;;7.47;49.06;95835.81;4214184;28;20052;-84
2021/03/30 03:24:32;;;;;;;7.88;4.50;;;;;;;7.44;49.43;95825.59;4212558;28;20465;-83
2021/03/30 03:26:33;;;;;;;8.75;4.45;;;;;;;7.43;49.24;95827.38;4212791;28;20044;-82
2021/03/30 03:28:41;;;;;;;8.40;4.45;;;;;;;7.37;49.13;95833.84;4213743;28;20103;-85
2021/03/30 03:30:43;;;;;;;13.27;4.78;;;;;;;7.36;49.49;95828.78;4213935;28;20067;-84
2021/03/30 03:32:44;;;;;;;10.73;4.90;;;;;;;7.33;49.33;95829.78;4231106;28;20169;-84
2021/03/30 03:34:45;;;;;;;10.07;4.45;;;;;;;7.31;49.51;95826.50;4246136;27;20639;-85
2021/03/30 03:36:50;;;;;;;9.57;4.50;;;;;;;7.33;48.92;95821.16;4214720;28;20060;-86
2021/03/30 03:38:51;;;;;;;9.20;4.43;;;;;;;7.34;49.10;95825.44;4205911;28;20477;-69
2021/03/30 03:40:52;;;;;;;13.32;4.60;;;;;;;7.35;49.27;95820.09;4227089;28;20468;-70
2021/03/30 03:42:53;;;;;;;7.80;4.60;;;;;;;7.39;49.07;95821.53;4229397;28;20073;-70
2021/03/30 03:44:54;;;;;;;6.15;4.18;;;;;;;7.33;49.02;95821.97;4208230;28;20052;-71
2021/03/30 03:46:56;;;;;;;9.02;4.20;;;;;;;7.36;49.38;95826.16;4210998;28;20089;-70
2021/03/30 03:48:57;;;;;;;11.27;4.18;;;;;;;7.33;49.31;95828.97;4231123;28;20125;-83
2021/03/30 03:51:02;;;;;;;10.75;5.00;;;;;;;7.30;49.30;95824.00;4239334;27;20057;-85
2021/03/30 03:53:04;;;;;;;7.88;4.97;;;;;;;7.21;49.62;95824.66;4201574;28;20526;-84
2021/03/30 03:55:06;;;;;;;8.05;4.30;;;;;;;7.15;49.28;95820.72;4218115;28;20388;-84
2021/03/30 03:57:13;;;;;;;11.68;4.57;;;;;;;7.16;49.50;95830.19;4226768;28;20154;-85
2021/03/30 03:59:20;;;;;;;15.77;4.97;;;;;;;7.15;49.71;95825.94;4226823;28;20051;-84
2021/03/30 04:01:26;;;;;;;14.13;4.85;;;;;;;7.17;49.71;95835.28;4212516;28;20051;-86
2021/03/30 04:03:29;;;;;;;9.02;4.60;;;;;;;7.21;49.35;95835.09;4218802;28;20058;-83
2021/03/30 04:05:40;;;;;;;10.15;4.53;;;;;;;7.17;49.42;95844.91;4202065;28;20136;-84
2021/03/30 04:07:53;;;;;;;8.98;4.30;;;;;;;7.16;49.47;95841.47;4229846;28;20127;-84
2021/03/30 04:09:55;;;;;;;9.90;4.43;;;;;;;7.20;49.48;95847.28;4221606;28;20048;-85
2021/03/30 04:12:08;;;;;;;15.40;4.93;;;;;;;7.21;49.70;95846.34;4217395;28;20048;-84
2021/03/30 04:14:09;;;;;;;17.25;5.30;;;;;;;7.11;50.10;95848.75;4214790;28;20055;-85
2021/03/30 04:16:11;;;;;;;11.73;5.32;;;;;;;7.12;49.77;95854.78;4214562;28;20083;-87
2021/03/30 04:18:12;;;;;;;19.80;6.57;;;;;;;7.01;50.45;95859.94;4199029;28;20044;-84
2021/03/30 04:20:15;;;;;;;23.70;6.07;;;;;;;6.95;50.52;95856.03;4227988;28;20050;-83
2021/03/30 04:22:16;;;;;;;14.18;6.38;;;;;;;6.99;50.26;95865.28;4241124;27;20047;-84
2021/03/30 04:24:18;;;;;;;16.90;6.15;;;;;;;6.95;50.52;95858.63;4237590;27;20578;-85
2021/03/30 04:26:19;;;;;;;14.95;6.28;;;;;;;6.97;50.66;95860.19;4232221;28;20051;-84
2021/03/30 04:28:20;;;;;;;11.88;5.63;;;;;;;7.02;50.45;95862.44;4239184;27;20043;-85
2021/03/30 04:30:23;;;;;;;13.27;5.70;;;;;;;7.06;50.17;95853.47;4214212;28;20085;-85
2021/03/30 04:32:24;;;;;;;17.35;6.22;;;;;;;7.05;50.52;95862.22;4213544;28;20048;-86
2021/03/30 04:34:26;;;;;;;15.10;6.13;;;;;;;7.08;50.44;95862.03;4200405;28;20109;-84
2021/03/30 04:36:27;;;;;;;12.48;6.43;;;;;;;7.11;50.09;95853.97;4218540;27;20048;-84
2021/03/30 04:38:28;;;;;;;45.38;9.48;;;;;;;7.08;50.37;95866.41;4247034;27;20047;-83
2021/03/30 04:40:30;;;;;;;18.02;6.90;;;;;;;7.17;50.65;95852.72;4231085;28;20047;-84
2021/03/30 04:42:31;;;;;;;18.05;6.45;;;;;;;7.22;50.31;95863.63;4231066;28;20109;-84
2021/03/30 04:44:33;;;;;;;20.15;6.35;;;;;;;7.29;50.08;95853.59;4231688;28;20047;-88
2021/03/30 04:46:34;;;;;;;14.57;6.68;;;;;;;7.32;50.21;95862.03;4196320;28;20055;-84
2021/03/30 04:48:36;;;;;;;10.05;5.95;;;;;;;7.41;49.69;95860.53;4219064;28;20044;-84
2021/03/30 04:50:37;;;;;;;15.27;6.13;;;;;;;7.47;49.97;95856.66;4216455;28;20051;-87
2021/03/30 04:52:39;;;;;;;21.25;7.85;;;;;;;7.53;49.40;95861.44;4230626;28;20050;-85
2021/03/30 04:54:40;;;;;;;25.52;8.20;;;;;;;7.57;49.68;95863.72;4222937;28;20465;-85
2021/03/30 04:56:42;;;;;;;19.38;6.43;;;;;;;7.59;49.42;95855.75;4213776;28;20044;-85
2021/03/30 04:58:43;;;;;;;16.27;7.07;;;;;;;7.64;49.04;95860.66;4217123;28;20387;-84
2021/03/30 05:00:44;;;;;;;36.28;7.75;;;;;;;7.68;48.99;95856.84;4234369;28;20066;-85
2021/03/30 05:02:45;;;;;;;19.52;6.72;;;;;;;7.78;49.06;95863.88;4216589;28;20097;-85
2021/03/30 05:04:48;;;;;;;105.05;60.78;;;;;;;7.78;49.46;95866.50;4242288;28;20088;-84
2021/03/30 05:06:49;;;;;;;27.55;8.88;;;;;;;7.79;48.44;95864.75;4235398;28;20451;-86
2021/03/30 05:08:50;;;;;;;13.95;7.65;;;;;;;7.84;48.67;95867.81;4235730;28;20052;-84
2021/03/30 05:10:52;;;;;;;19.55;6.55;;;;;;;7.89;47.96;95860.47;4220923;28;20438;-85
2021/03/30 05:12:53;;;;;;;14.75;6.63;;;;;;;7.96;48.10;95860.88;4230055;28;20093;-83
2021/03/30 05:14:54;;;;;;;20.23;6.40;;;;;;;8.01;48.06;95866.56;4237258;28;20053;-84
2021/03/30 05:16:55;;;;;;;21.20;6.93;;;;;;;8.06;47.86;95866.22;4231568;28;20051;-85
2021/03/30 05:18:57;;;;;;;20.50;6.93;;;;;;;8.14;47.32;95866.50;4246718;28;20047;-86
2021/03/30 05:20:58;;;;;;;19.38;7.10;;;;;;;8.17;47.20;95859.28;4233222;28;20044;-85
2021/03/30 05:22:59;;;;;;;16.83;6.13;;;;;;;8.17;46.90;95864.50;4216066;28;20062;-86
2021/03/30 05:25:02;;;;;;;26.73;8.20;;;;;;;8.10;47.32;95863.28;4213819;28;20048;-86
2021/03/30 05:27:04;;;;;;;24.67;7.45;;;;;;;8.07;47.68;95860.91;4232995;28;20051;-87
2021/03/30 05:29:05;;;;;;;27.50;7.60;;;;;;;7.92;47.57;95872.50;4234582;28;20493;-85
2021/03/30 05:31:07;;;;;;;21.83;7.60;;;;;;;7.61;48.21;95866.06;4238604;28;20044;-87
2021/03/30 05:33:08;;;;;;;22.90;7.35;;;;;;;7.54;48.43;95863.91;4220542;28;20055;-88
2021/03/30 05:35:12;;;;;;;18.13;7.03;;;;;;;7.63;48.49;95865.00;4244776;28;20078;-88
2021/03/30 05:37:16;;;;;;;19.42;7.65;;;;;;;7.62;48.74;95875.59;4234883;28;20051;-85
2021/03/30 05:39:18;;;;;;;15.20;7.50;;;;;;;7.44;48.79;95869.91;4236520;28;20043;-88
2021/03/30 05:41:19;;;;;;;22.13;8.55;;;;;;;7.53;48.89;95877.09;4220809;28;20475;-87
2021/03/30 05:43:21;;;;;;;19.98;7.38;;;;;;;7.67;48.66;95866.47;4197557;28;20083;-83
2021/03/30 05:45:22;;;;;;;18.60;7.05;;;;;;;7.77;48.07;95872.66;4217084;28;20446;-84
2021/03/30 05:47:26;;;;;;;12.90;7.57;;;;;;;7.86;47.74;95865.94;4217173;28;20059;-86
2021/03/30 05:49:27;;;;;;;16.73;7.10;;;;;;;7.98;47.42;95872.03;4231157;28;20175;-85
2021/03/30 05:51:30;;;;;;;16.42;5.97;;;;;;;8.02;46.72;95870.84;4219397;28;20169;-85
2021/03/30 05:53:32;;;;;;;16.95;7.32;;;;;;;7.92;47.06;95880.31;4220842;28;20052;-91
2021/03/30 05:55:37;;;;;;;11.60;5.32;;;;;;;7.69;46.90;95884.63;4219966;28;20103;-84
2021/03/30 05:57:38;;;;;;;12.75;7.18;;;;;;;7.46;47.41;95886.28;4237475;28;20039;-85
2021/03/30 05:59:45;;;;;;;14.18;6.07;;;;;;;7.33;48.06;95886.31;4219814;28;20051;-87
2021/03/30 06:01:49;;;;;;;17.13;6.05;;;;;;;7.61;47.90;95887.75;4219482;28;20500;-88
2021/03/30 06:03:52;;;;;;;16.55;7.22;;;;;;;7.88;47.00;95884.09;4237206;28;20058;-86
2021/03/30 06:05:56;;;;;;;16.75;6.78;;;;;;;8.03;46.70;95884.75;4237458;28;20116;-88
2021/03/30 06:07:59;;;;;;;15.23;7.22;;;;;;;8.00;46.19;95891.84;4237851;28;20043;-85
2021/03/30 06:10:00;;;;;;;18.45;8.05;;;;;;;7.79;46.58;95886.44;4229376;28;20114;-86
2021/03/30 06:12:02;;;;;;;10.27;6.00;;;;;;;7.99;46.88;95884.94;4221499;28;20082;-86
2021/03/30 06:14:03;;;;;;;12.20;5.65;;;;;;;8.03;45.89;95895.19;4234747;28;20127;-86
2021/03/30 06:16:21;;;;;;;12.93;5.88;;;;;;;7.67;47.02;95899.53;4234881;28;20077;-86
2021/03/30 06:18:22;;;;;;;10.82;6.45;;;;;;;7.94;46.48;95896.69;4234341;28;20047;-87
2021/03/30 06:20:28;;;;;;;12.43;6.63;;;;;;;8.24;45.90;95897.94;4231226;28;20514;-87
2021/03/30 06:22:29;;;;;;;9.45;4.63;;;;;;;8.54;45.44;95900.03;4209616;28;20513;-73
2021/03/30 06:24:32;;;;;;;8.15;4.35;;;;;;;8.15;44.90;95900.31;4229057;28;20048;-71
2021/03/30 06:26:33;;;;;;;17.03;5.17;;;;;;;8.29;45.01;95903.66;4219847;28;20391;-74
2021/03/30 06:28:40;;;;;;;15.30;5.05;;;;;;;8.28;44.79;95905.44;4230819;28;20288;-72
2021/03/30 06:31:03;;;;;;;13.82;5.15;;;;;;;8.34;45.23;95904.13;4224926;28;20051;-72
2021/03/30 06:33:08;;;;;;;11.40;5.55;;;;;;;8.43;44.64;95900.84;4228518;28;20056;-72
2021/03/30 06:35:14;;;;;;;14.00;4.93;;;;;;;7.99;44.92;95903.22;4238651;27;20090;-73
2021/03/30 06:37:29;;;;;;;9.20;4.65;;;;;;;7.98;45.43;95903.34;4229606;28;20047;-73
2021/03/30 06:39:34;;;;;;;;;;;;;;;8.08;45.42;95909.53;4210270;28;20055;-72
2021/03/30 06:46:06;;;;;;;9.35;4.88;;;;;;;8.74;43.03;95890.69;4219344;28;20085;-73
2021/03/30 06:48:08;;;;;;;13.50;4.85;;;;;;;8.90;42.24;95893.75;4229308;28;20062;-72
2021/03/30 06:50:18;;;;;;;12.93;5.47;;;;;;;8.99;42.32;95900.91;4197896;28;20049;-87
2021/03/30 06:52:25;;;;;;;10.77;4.93;;;;;;;9.23;41.95;95892.09;4240494;28;20052;-88
2021/03/30 06:54:26;;;;;;;11.27;4.68;;;;;;;9.36;42.08;95895.38;4231356;28;20052;-86
2021/03/30 06:56:49;;;;;;;10.23;4.55;;;;;;;9.56;41.22;95900.81;4224085;28;20117;-89
2021/03/30 06:58:56;;;;;;;10.95;4.20;;;;;;;9.60;41.13;95897.00;4241344;28;20059;-86
2021/03/30 07:00:57;;;;;;;17.58;4.75;;;;;;;9.77;40.35;95899.06;4215943;28;20101;-87
2021/03/30 07:03:00;;;;;;;8.55;4.28;;;;;;;9.95;40.20;95893.28;4221263;28;20044;-84
2021/03/30 07:05:01;;;;;;;9.57;4.38;;;;;;;10.08;39.75;95893.94;4232523;28;20049;-86
2021/03/30 07:07:03;;;;;;;10.90;5.10;;;;;;;10.28;39.38;95894.06;4223569;28;20048;-85
2021/03/30 07:09:09;;;;;;;10.57;4.80;;;;;;;10.27;39.19;95893.25;4239405;28;20045;-85
2021/03/30 07:11:10;;;;;;;10.85;5.15;;;;;;;10.35;39.71;95892.66;4222562;28;20051;-85
2021/03/30 07:13:13;;;;;;;9.63;4.60;;;;;;;10.44;39.09;95890.06;4236498;28;20051;-87
2021/03/30 07:15:19;;;;;;;12.43;4.93;;;;;;;10.42;38.96;95893.78;4214435;28;20051;-72
2021/03/30 07:17:27;;;;;;;10.73;4.38;;;;;;;10.51;38.15;95889.56;4228639;28;20054;-72
2021/03/30 07:19:31;;;;;;;8.73;4.65;;;;;;;10.11;37.41;95893.69;4193448;28;20056;-73
2021/03/30 07:21:35;;;;;;;9.20;3.95;;;;;;;10.12;37.81;95892.72;4211268;28;20801;-71
2021/03/30 07:23:38;;;;;;;6.88;4.15;;;;;;;10.25;38.26;95888.13;4209984;28;20085;-71
2021/03/30 07:25:48;;;;;;;11.68;3.85;;;;;;;10.50;37.73;95898.41;4208190;28;20056;-75
2021/03/30 07:28:12;;;;;;;7.55;4.07;;;;;;;10.78;36.58;95889.84;4200369;28;20187;-88
2021/03/30 07:30:14;;;;;;;10.02;3.90;;;;;;;10.99;36.56;95889.81;4216235;28;20060;-86
2021/03/30 07:32:27;;;;;;;10.48;3.78;;;;;;;11.04;36.07;95892.84;4218562;28;20052;-86
2021/03/30 07:34:58;;;;;;;10.00;4.32;;;;;;;11.00;35.46;95894.06;4204662;28;20051;-86
2021/03/30 07:37:02;;;;;;;10.13;3.80;;;;;;;11.09;36.45;95889.81;4198670;28;20047;-85
2021/03/30 07:39:04;;;;;;;7.97;3.80;;;;;;;11.28;35.99;95894.31;4235439;28;20130;-86
2021/03/30 07:41:08;;;;;;;5.93;3.90;;;;;;;10.98;35.60;95892.56;4215967;28;20127;-83
2021/03/30 07:43:13;;;;;;;8.38;4.18;;;;;;;10.75;35.79;95892.72;4211210;28;20436;-72
2021/03/30 07:45:17;;;;;;;9.82;4.82;;;;;;;10.82;36.28;95890.44;4214292;28;20077;-72
2021/03/30 07:47:19;;;;;;;11.98;5.03;;;;;;;10.94;35.88;95896.38;4219000;28;20080;-84
2021/03/30 07:49:25;;;;;;;18.45;7.32;;;;;;;10.99;35.99;95892.44;4217513;28;20044;-88
2021/03/30 07:51:40;;;;;;;21.98;6.95;;;;;;;11.17;36.17;95887.38;4220224;28;20044;-89
2021/03/30 07:53:47;;;;;;;10.20;4.75;;;;;;;11.05;35.70;95893.66;4238414;28;20058;-85
2021/03/30 07:55:49;;;;;;;7.22;4.35;;;;;;;11.04;35.67;95886.78;4236371;28;20055;-87
2021/03/30 07:58:15;;;;;;;14.25;4.63;;;;;;;10.82;35.70;95890.44;4234210;28;20130;-85
2021/03/30 08:00:39;;;;;;;14.93;8.05;;;;;;;11.03;35.86;95890.34;4233976;27;20126;-87
2021/03/30 08:02:46;;;;;;;8.88;4.90;;;;;;;10.87;35.87;95893.47;4233407;27;20089;-84
2021/03/30 08:05:09;;;;;;;14.13;5.32;;;;;;;10.76;36.20;95893.56;4232713;27;20134;-86
2021/03/30 08:07:11;;;;;;;10.00;4.82;;;;;;;10.62;35.77;95897.34;4200543;28;20214;-86
2021/03/30 08:09:14;;;;;;;13.07;4.72;;;;;;;10.70;35.87;95905.38;4224256;27;20089;-85
2021/03/30 08:11:17;;;;;;;18.67;8.55;;;;;;;10.55;35.69;95904.06;4239084;27;20140;-83
2021/03/30 08:13:29;;;;;;;15.50;6.20;;;;;;;10.66;35.69;95899.56;4195941;28;20092;-72
2021/03/30 08:15:42;;;;;;;9.38;4.38;;;;;;;10.34;36.44;95904.06;4237778;27;20130;-72
2021/03/30 08:17:44;;;;;;;8.85;4.50;;;;;;;10.70;36.29;95899.31;4217845;27;20062;-72
2021/03/30 08:19:56;;;;;;;14.38;4.50;;;;;;;10.99;35.35;95894.19;4221061;28;20054;-73
2021/03/30 08:22:02;;;;;;;9.63;4.20;;;;;;;10.64;35.30;95898.03;4210426;28;20139;-72
2021/03/30 08:24:03;;;;;;;7.50;4.35;;;;;;;10.62;34.92;95897.34;4223563;28;20055;-73
2021/03/30 08:26:31;;;;;;;11.88;4.22;;;;;;;10.61;35.32;95896.50;4212772;28;20053;-72
2021/03/30 08:28:47;;;;;;;12.70;4.22;;;;;;;11.07;35.24;95883.88;4199721;28;20098;-72
2021/03/30 08:30:53;;;;;;;14.32;5.80;;;;;;;10.93;34.80;95892.13;4229335;27;20052;-73
2021/03/30 08:32:55;;;;;;;14.45;4.80;;;;;;;10.61;35.72;95893.91;4226902;27;20112;-72
2021/03/30 08:34:56;;;;;;;9.80;4.28;;;;;;;11.05;35.20;95883.19;4221874;28;20503;-71
2021/03/30 08:36:58;;;;;;;13.50;3.92;;;;;;;11.09;34.78;95891.63;4227800;28;20055;-73
2021/03/30 08:39:03;;;;;;;14.95;6.50;;;;;;;11.11;34.54;95889.69;4207921;28;20114;-74
2021/03/30 08:41:04;;;;;;;10.80;5.13;;;;;;;11.14;34.66;95886.78;4228184;28;20055;-74
2021/03/30 08:43:14;;;;;;;12.75;4.03;;;;;;;11.00;33.69;95891.44;4226552;28;20044;-74
2021/03/30 08:45:16;;;;;;;9.15;3.63;;;;;;;11.16;34.47;95887.50;4226638;28;20775;-73
2021/03/30 08:47:29;;;;;;;10.38;4.75;;;;;;;11.34;33.97;95893.78;4210423;28;20056;-73
2021/03/30 08:49:40;;;;;;;6.75;4.10;;;;;;;11.34;34.24;95888.53;4191353;28;20059;-75
2021/03/30 08:51:41;;;;;;;13.00;4.18;;;;;;;11.55;34.03;95898.06;4221901;28;20093;-73
2021/03/30 08:53:47;;;;;;;8.35;4.13;;;;;;;11.78;33.14;95886.38;4217143;28;20067;-72
2021/03/30 08:55:49;;;;;;;8.85;3.75;;;;;;;11.41;33.11;95884.38;4208778;28;20118;-73
2021/03/30 08:57:51;;;;;;;9.02;4.90;;;;;;;11.53;32.71;95884.25;4217976;28;20407;-73
2021/03/30 08:59:52;;;;;;;7.05;3.67;;;;;;;11.53;32.81;95886.88;4218298;28;20144;-74
2021/03/30 09:02:01;;;;;;;5.28;3.38;;;;;;;11.92;32.64;95876.47;4211009;28;20521;-73
2021/03/30 09:04:03;;;;;;;9.55;3.60;;;;;;;11.72;32.30;95881.66;4212503;28;20051;-75
2021/03/30 09:06:05;;;;;;;7.63;3.40;;;;;;;11.78;32.21;95882.91;4209951;28;20484;-72
2021/03/30 09:08:09;;;;;;;10.88;3.70;;;;;;;12.13;32.40;95882.41;4209046;28;20801;-74
2021/03/30 09:10:11;;;;;;;8.10;3.58;;;;;;;12.35;32.36;95875.19;4226711;28;20191;-73
2021/03/30 09:12:18;;;;;;;9.88;3.85;;;;;;;12.33;31.95;95877.13;4228891;28;20047;-85
2021/03/30 09:14:24;;;;;;;8.35;4.57;;;;;;;12.23;32.49;95877.13;4238793;28;20036;-86
2021/03/30 09:16:26;;;;;;;9.98;3.88;;;;;;;12.19;32.27;95875.75;4216334;28;20067;-88
2021/03/30 09:18:28;;;;;;;7.05;3.75;;;;;;;12.25;31.95;95870.75;4224774;28;20058;-85
2021/03/30 09:20:38;;;;;;;10.10;4.78;;;;;;;11.86;32.73;95873.38;4238386;28;20452;-88
2021/03/30 09:22:45;;;;;;;5.47;3.42;;;;;;;12.05;32.94;95872.59;4214950;28;20050;-87
2021/03/30 09:26:59;;;;;;;8.45;3.83;;;;;;;12.72;31.67;95869.16;4230598;28;20051;-73
2021/03/30 09:29:01;;;;;;;9.68;4.05;;;;;;;12.88;31.85;95872.84;4207882;28;20052;-72
2021/03/30 09:31:02;;;;;;;12.40;3.38;;;;;;;13.05;30.38;95870.38;4196615;28;20045;-72
2021/03/30 09:33:06;;;;;;;8.07;3.90;;;;;;;13.33;30.31;95860.72;4207328;28;20055;-73
2021/03/30 09:35:11;;;;;;;10.23;4.03;;;;;;;13.60;30.13;95861.69;4213930;28;20392;-75
2021/03/30 09:37:12;;;;;;;11.60;3.75;;;;;;;13.08;29.60;95859.59;4227458;28;20436;-72
2021/03/30 09:39:26;;;;;;;7.47;3.28;;;;;;;12.47;30.00;95855.66;4202063;28;20048;-72
2021/03/30 09:41:41;;;;;;;8.05;3.63;;;;;;;12.20;31.21;95865.09;4207149;28;20048;-73
2021/03/30 09:43:44;;;;;;;5.03;3.40;;;;;;;12.60;31.48;95845.63;4199200;28;20333;-71
2021/03/30 09:45:45;;;;;;;6.30;3.63;;;;;;;13.04;30.92;95851.16;4209020;28;20134;-73
2021/03/30 09:47:47;;;;;;;6.60;3.47;;;;;;;13.19;30.38;95845.41;4204165;28;20048;-72
2021/03/30 09:49:49;;;;;;;6.95;3.53;;;;;;;13.31;30.01;95849.50;4208198;28;20091;-73
2021/03/30 09:51:53;;;;;;;7.95;3.70;;;;;;;13.27;29.48;95842.84;4207820;28;20044;-73
2021/03/30 09:53:54;;;;;;;7.68;3.33;;;;;;;13.51;29.80;95840.53;4207459;28;20044;-73
2021/03/30 09:55:55;;;;;;;5.50;3.67;;;;;;;13.80;29.44;95834.19;4210058;28;20521;-72